Time;durP1;ratioP1;P1;durP2;ratioP2;P2;SDS_P1;SDS_P2;PMS_P1;PMS_P2;Temp;Humidity;BMP_temperature;BMP_pressure;BME280_temperature;BME280_humidity;BME280_pressure;Samples;Min_cycle;Max_cycle;Signal;HPM_P1;HPM_P2
2021/01/24 00:00:18;;;;;;;36.67;23.75;;;;;;;;;;6246548;23;20292;-87
2021/01/24 00:02:47;;;;;;;38.35;21.90;;;;;;;;;;6226387;23;20011;-87
2021/01/24 00:05:17;;;;;;;35.38;21.85;;;;;;;;;;6240290;22;20016;-87
2021/01/24 00:07:50;;;;;;;35.88;21.23;;;;;;;;;;6266725;22;20023;-87
2021/01/24 00:10:19;;;;;;;39.60;22.48;;;;;;;;;;6249215;23;20024;-87
2021/01/24 00:12:55;;;;;;;43.40;23.75;;;;;;;;;;6221484;23;20039;-87
2021/01/24 00:15:21;;;;;;;37.92;22.55;;;;;;;;;;6251220;23;20105;-87
2021/01/24 00:17:47;;;;;;;33.72;19.90;;;;;;;;;;6266148;22;20084;-87
2021/01/24 00:20:23;;;;;;;32.72;19.55;;;;;;;;;;6240843;22;20016;-87
2021/01/24 00:22:52;;;;;;;31.85;20.10;;;;;;;;;;6240831;22;20072;-87
2021/01/24 00:25:18;;;;;;;31.42;18.60;;;;;;;;;;6266122;22;20027;-87
2021/01/24 00:27:46;;;;;;;31.77;18.63;;;;;;;;;;6236843;23;20229;-87
2021/01/24 00:30:13;;;;;;;30.33;17.73;;;;;;;;;;6249966;23;20028;-88
2021/01/24 00:32:52;;;;;;;30.95;17.90;;;;;;;;;;6225508;23;20051;-87
2021/01/24 00:35:27;;;;;;;29.80;18.73;;;;;;;;;;6223732;23;20031;-86
2021/01/24 00:37:56;;;;;;;31.95;18.92;;;;;;;;;;6224978;23;20028;-86
2021/01/24 00:40:22;;;;;;;28.05;18.48;;;;;;;;;;6223956;23;20461;-86
2021/01/24 00:42:48;;;;;;;33.10;19.27;;;;;;;;;;6250590;23;20219;-86
2021/01/24 00:45:21;;;;;;;30.08;18.35;;;;;;;;;;6250534;23;20027;-86
2021/01/24 00:47:47;;;;;;;32.40;19.83;;;;;;;;;;6224169;23;20020;-86
2021/01/24 00:50:26;;;;;;;36.38;20.65;;;;;;;;;;6226567;23;20259;-86
2021/01/24 00:52:56;;;;;;;34.70;20.40;;;;;;;;;;6224976;23;20051;-86
2021/01/24 00:55:23;;;;;;;33.03;20.08;;;;;;;;;;6252786;23;20316;-87
2021/01/24 00:58:05;;;;;;;36.53;21.95;;;;;;;;;;6231381;22;20047;-88
2021/01/24 01:00:32;;;;;;;31.45;20.58;;;;;;;;;;6267155;23;20028;-89
2021/01/24 01:02:59;;;;;;;30.50;18.48;;;;;;;;;;6269720;22;20032;-88
2021/01/24 01:05:25;;;;;;;32.83;19.90;;;;;;;;;;6260916;23;20082;-88
2021/01/24 01:07:55;;;;;;;28.23;17.95;;;;;;;;;;6233966;23;20024;-87
2021/01/24 01:10:24;;;;;;;34.03;18.50;;;;;;;;;;6266615;22;20024;-89
2021/01/24 01:12:50;;;;;;;37.15;21.20;;;;;;;;;;6237401;23;20032;-88
2021/01/24 01:15:44;;;;;;;33.63;20.25;;;;;;;;;;6240738;23;20016;-88
2021/01/24 01:18:11;;;;;;;32.42;20.52;;;;;;;;;;6241162;22;20054;-86
2021/01/24 01:20:40;;;;;;;37.00;20.80;;;;;;;;;;6269130;22;20059;-89
2021/01/24 01:23:06;;;;;;;41.83;22.83;;;;;;;;;;6243707;22;20014;-87
2021/01/24 01:25:35;;;;;;;36.28;21.20;;;;;;;;;;6269727;23;20020;-88
2021/01/24 01:28:04;;;;;;;36.28;19.95;;;;;;;;;;6271747;22;20017;-88
2021/01/24 01:30:30;;;;;;;40.05;23.27;;;;;;;;;;6268025;22;20046;-89
2021/01/24 01:32:57;;;;;;;46.88;25.73;;;;;;;;;;6269502;22;20072;-89
2021/01/24 01:35:26;;;;;;;42.50;25.30;;;;;;;;;;6239295;22;20028;-89
2021/01/24 01:37:52;;;;;;;44.95;26.52;;;;;;;;;;6268772;22;20052;-87
2021/01/24 01:40:19;;;;;;;40.63;24.25;;;;;;;;;;6261329;23;20039;-87
2021/01/24 01:42:48;;;;;;;37.70;23.02;;;;;;;;;;6257933;23;20024;-87
2021/01/24 01:45:30;;;;;;;38.50;21.35;;;;;;;;;;6266608;23;20016;-87
2021/01/24 01:47:59;;;;;;;36.15;21.95;;;;;;;;;;6265367;23;20024;-86
2021/01/24 01:50:26;;;;;;;33.42;21.50;;;;;;;;;;6263697;23;20074;-86
2021/01/24 01:52:54;;;;;;;36.10;21.55;;;;;;;;;;6239481;23;20072;-87
2021/01/24 01:55:27;;;;;;;40.63;21.65;;;;;;;;;;6243271;23;20012;-86
2021/01/24 01:57:57;;;;;;;34.63;20.35;;;;;;;;;;6238077;23;20051;-86
2021/01/24 02:00:25;;;;;;;30.73;20.27;;;;;;;;;;6228220;23;20024;-85
2021/01/24 02:03:07;;;;;;;34.22;20.90;;;;;;;;;;6254732;23;20056;-84
2021/01/24 02:05:40;;;;;;;39.35;22.13;;;;;;;;;;6260399;23;20024;-85
2021/01/24 02:08:06;;;;;;;32.00;19.45;;;;;;;;;;6236883;23;20028;-87
2021/01/24 02:10:39;;;;;;;31.05;20.23;;;;;;;;;;6236388;23;20044;-85
2021/01/24 02:13:05;;;;;;;34.25;21.02;;;;;;;;;;6234047;23;20024;-86
2021/01/24 02:15:32;;;;;;;30.67;19.55;;;;;;;;;;6266707;23;20024;-87
2021/01/24 02:18:04;;;;;;;35.60;21.27;;;;;;;;;;6263377;23;20024;-85
2021/01/24 02:20:43;;;;;;;30.50;19.20;;;;;;;;;;6232950;23;20058;-85
2021/01/24 02:23:11;;;;;;;29.77;18.52;;;;;;;;;;6229064;23;20043;-85
2021/01/24 02:25:42;;;;;;;25.35;18.20;;;;;;;;;;6226802;23;20402;-84
2021/01/24 02:28:12;;;;;;;28.10;18.33;;;;;;;;;;6231866;23;20111;-85
2021/01/24 02:30:40;;;;;;;25.77;17.08;;;;;;;;;;6238634;22;20023;-86
2021/01/24 02:33:09;;;;;;;30.30;18.25;;;;;;;;;;6234332;23;20028;-86
2021/01/24 02:36:10;;;;;;;30.65;19.42;;;;;;;;;;6237375;23;20331;-85
2021/01/24 02:38:41;;;;;;;29.08;19.13;;;;;;;;;;6233782;23;20369;-87
2021/01/24 02:41:08;;;;;;;33.45;19.92;;;;;;;;;;6231240;23;20024;-84
2021/01/24 02:43:36;;;;;;;33.58;20.40;;;;;;;;;;6253132;23;20020;-84
2021/01/24 02:46:03;;;;;;;32.92;20.35;;;;;;;;;;6227394;23;20031;-84
2021/01/24 02:48:29;;;;;;;33.70;20.77;;;;;;;;;;6253927;23;20028;-84
2021/01/24 02:51:00;;;;;;;35.63;20.70;;;;;;;;;;6254039;23;20028;-84
2021/01/24 02:53:27;;;;;;;34.60;21.08;;;;;;;;;;6267077;22;20019;-84
2021/01/24 02:55:54;;;;;;;33.30;19.08;;;;;;;;;;6241569;22;20058;-84
2021/01/24 02:58:20;;;;;;;30.95;18.52;;;;;;;;;;6236809;23;20028;-84
2021/01/24 03:00:46;;;;;;;32.42;20.15;;;;;;;;;;6226350;23;20024;-84
2021/01/24 03:03:12;;;;;;;31.55;18.60;;;;;;;;;;6226754;23;20026;-84
2021/01/24 03:05:42;;;;;;;33.83;20.02;;;;;;;;;;6237177;22;20012;-84
2021/01/24 03:08:08;;;;;;;30.13;18.85;;;;;;;;;;6269033;22;20023;-84
2021/01/24 03:10:34;;;;;;;33.88;19.33;;;;;;;;;;6254791;23;20040;-84
2021/01/24 03:13:15;;;;;;;29.50;18.25;;;;;;;;;;6225699;23;20064;-84
2021/01/24 03:15:43;;;;;;;31.13;19.38;;;;;;;;;;6225509;23;20119;-84
2021/01/24 03:18:10;;;;;;;33.90;19.48;;;;;;;;;;6227328;23;20024;-84
2021/01/24 03:20:39;;;;;;;35.58;18.85;;;;;;;;;;6227099;23;20325;-84
2021/01/24 03:23:08;;;;;;;32.08;19.48;;;;;;;;;;6226318;23;20024;-84
2021/01/24 03:25:39;;;;;;;31.38;18.50;;;;;;;;;;6224526;23;20035;-84
2021/01/24 03:28:07;;;;;;;32.30;19.30;;;;;;;;;;6224023;23;20035;-84
2021/01/24 03:30:36;;;;;;;30.67;18.27;;;;;;;;;;6224417;23;20023;-84
2021/01/24 03:33:03;;;;;;;32.42;18.65;;;;;;;;;;6253329;23;20076;-84
2021/01/24 03:35:35;;;;;;;27.52;16.95;;;;;;;;;;6222895;23;20049;-84
2021/01/24 03:38:02;;;;;;;32.28;18.92;;;;;;;;;;6225007;23;20397;-84
2021/01/24 03:40:35;;;;;;;35.15;19.27;;;;;;;;;;6252050;23;20032;-84
2021/01/24 03:43:04;;;;;;;28.33;17.88;;;;;;;;;;6224390;23;20086;-84
2021/01/24 03:45:31;;;;;;;30.80;18.80;;;;;;;;;;6251193;23;20306;-84
2021/01/24 03:47:59;;;;;;;30.05;17.92;;;;;;;;;;6225258;23;20024;-84
2021/01/24 03:50:34;;;;;;;29.10;19.42;;;;;;;;;;6225691;23;20031;-84
2021/01/24 03:53:00;;;;;;;31.95;19.40;;;;;;;;;;6250481;23;20123;-84
2021/01/24 03:55:27;;;;;;;33.45;18.02;;;;;;;;;;6250162;23;20075;-84
2021/01/24 03:58:05;;;;;;;32.08;19.20;;;;;;;;;;6250520;23;20050;-84
2021/01/24 04:00:31;;;;;;;34.38;19.15;;;;;;;;;;6223981;23;20032;-84
2021/01/24 04:02:59;;;;;;;29.90;17.55;;;;;;;;;;6224503;23;20024;-83
2021/01/24 04:05:34;;;;;;;31.15;18.27;;;;;;;;;;6223633;23;20047;-84
2021/01/24 04:08:08;;;;;;;32.33;20.27;;;;;;;;;;6247993;23;20525;-84
2021/01/24 04:10:34;;;;;;;31.73;19.35;;;;;;;;;;6247933;23;20111;-84
2021/01/24 04:13:03;;;;;;;34.47;19.38;;;;;;;;;;6221198;23;20030;-84
2021/01/24 04:15:32;;;;;;;36.28;21.58;;;;;;;;;;6248796;23;20063;-84
2021/01/24 04:17:58;;;;;;;34.15;21.23;;;;;;;;;;6223551;23;20043;-84
2021/01/24 04:20:33;;;;;;;32.28;19.48;;;;;;;;;;6249889;23;20024;-84
2021/01/24 04:23:02;;;;;;;31.92;19.02;;;;;;;;;;6224456;23;20024;-84
2021/01/24 04:25:28;;;;;;;33.47;18.85;;;;;;;;;;6250005;23;20024;-84
2021/01/24 04:28:09;;;;;;;33.05;18.52;;;;;;;;;;6225415;23;20074;-84
2021/01/24 04:30:38;;;;;;;26.83;17.75;;;;;;;;;;6222585;23;20040;-84
2021/01/24 04:33:06;;;;;;;29.67;17.95;;;;;;;;;;6222988;23;20042;-84
2021/01/24 04:35:32;;;;;;;32.53;20.00;;;;;;;;;;6223877;23;20035;-84
2021/01/24 04:37:59;;;;;;;33.83;19.77;;;;;;;;;;6250706;23;20030;-84
2021/01/24 04:40:25;;;;;;;34.22;19.73;;;;;;;;;;6224323;23;20024;-84
2021/01/24 04:42:55;;;;;;;37.20;20.63;;;;;;;;;;6222891;23;20028;-84
2021/01/24 04:45:23;;;;;;;33.80;20.60;;;;;;;;;;6224701;23;20024;-84
2021/01/24 04:47:51;;;;;;;40.60;20.80;;;;;;;;;;6222776;23;20095;-84
2021/01/24 04:50:18;;;;;;;37.10;20.02;;;;;;;;;;6249769;23;20035;-84
2021/01/24 04:52:45;;;;;;;38.15;21.35;;;;;;;;;;6225024;23;20274;-84
2021/01/24 04:55:13;;;;;;;35.75;21.02;;;;;;;;;;6224542;23;20028;-85
2021/01/24 04:57:41;;;;;;;34.30;20.10;;;;;;;;;;6251941;23;20172;-85
2021/01/24 05:00:08;;;;;;;33.97;19.27;;;;;;;;;;6225646;23;20123;-85
2021/01/24 05:02:35;;;;;;;37.13;21.67;;;;;;;;;;6252275;23;20024;-85
2021/01/24 05:05:02;;;;;;;43.00;22.88;;;;;;;;;;6259058;23;20024;-85
2021/01/24 05:07:29;;;;;;;46.83;25.48;;;;;;;;;;6240969;22;20027;-85
2021/01/24 05:09:56;;;;;;;45.20;25.02;;;;;;;;;;6231272;23;20032;-85
2021/01/24 05:12:22;;;;;;;48.88;26.65;;;;;;;;;;6225365;23;20036;-85
2021/01/24 05:14:49;;;;;;;38.58;23.33;;;;;;;;;;6249981;23;20044;-85
2021/01/24 05:17:16;;;;;;;37.70;20.83;;;;;;;;;;6248562;23;20213;-84
2021/01/24 05:19:43;;;;;;;39.85;23.05;;;;;;;;;;6223501;23;20021;-85
2021/01/24 05:22:20;;;;;;;37.78;21.08;;;;;;;;;;6221979;23;20084;-85
2021/01/24 05:24:46;;;;;;;44.35;21.92;;;;;;;;;;6251211;23;20024;-85
2021/01/24 05:27:13;;;;;;;40.78;21.73;;;;;;;;;;6226289;23;20038;-85
2021/01/24 05:29:40;;;;;;;35.58;21.35;;;;;;;;;;6252970;23;20028;-85
2021/01/24 05:32:09;;;;;;;40.00;22.30;;;;;;;;;;6225947;23;20031;-85
2021/01/24 05:34:36;;;;;;;35.33;20.73;;;;;;;;;;6225517;23;20036;-85
2021/01/24 05:37:08;;;;;;;35.08;20.80;;;;;;;;;;6225457;23;20048;-85
2021/01/24 05:39:34;;;;;;;32.50;19.63;;;;;;;;;;6223647;23;20024;-85
2021/01/24 05:42:00;;;;;;;33.70;18.40;;;;;;;;;;6224043;23;20040;-85
2021/01/24 05:44:27;;;;;;;36.67;20.48;;;;;;;;;;6224282;23;20290;-85
2021/01/24 05:46:55;;;;;;;38.33;20.92;;;;;;;;;;6224636;23;20024;-85
2021/01/24 05:49:28;;;;;;;47.55;23.35;;;;;;;;;;6223647;23;20028;-85
2021/01/24 05:52:02;;;;;;;39.03;21.83;;;;;;;;;;6249183;23;20094;-86
2021/01/24 05:54:38;;;;;;;35.63;21.42;;;;;;;;;;6222523;23;20086;-85
2021/01/24 05:57:04;;;;;;;41.13;22.50;;;;;;;;;;6249649;23;20031;-85
2021/01/24 05:59:50;;;;;;;34.17;19.23;;;;;;;;;;6248895;23;20329;-85
2021/01/24 06:02:16;;;;;;;35.00;20.25;;;;;;;;;;6222690;23;20024;-85
2021/01/24 06:04:43;;;;;;;41.58;22.23;;;;;;;;;;6248499;23;20034;-85
2021/01/24 06:07:09;;;;;;;38.53;21.08;;;;;;;;;;6250228;23;20055;-85
2021/01/24 06:09:36;;;;;;;37.83;22.27;;;;;;;;;;6235552;23;20140;-85
2021/01/24 06:12:03;;;;;;;39.72;22.45;;;;;;;;;;6241127;22;20013;-85
2021/01/24 06:14:32;;;;;;;42.95;24.27;;;;;;;;;;6241478;22;20215;-85
2021/01/24 06:17:01;;;;;;;41.38;22.83;;;;;;;;;;6241617;22;20012;-85
2021/01/24 06:19:31;;;;;;;43.45;22.73;;;;;;;;;;6232213;23;20477;-85
2021/01/24 06:21:58;;;;;;;36.13;21.95;;;;;;;;;;6253003;23;20035;-85
2021/01/24 06:24:35;;;;;;;41.55;22.02;;;;;;;;;;6266192;22;20086;-84
2021/01/24 06:27:01;;;;;;;40.35;22.63;;;;;;;;;;6242743;22;20024;-84
2021/01/24 06:29:31;;;;;;;38.42;21.50;;;;;;;;;;6241583;22;20016;-84
2021/01/24 06:32:00;;;;;;;40.47;21.63;;;;;;;;;;6227699;23;20082;-85
2021/01/24 06:34:34;;;;;;;37.80;22.25;;;;;;;;;;6227305;23;20028;-85
2021/01/24 06:37:06;;;;;;;38.72;21.27;;;;;;;;;;6231564;23;20032;-85
2021/01/24 06:39:38;;;;;;;34.97;20.38;;;;;;;;;;6266938;22;20024;-85
2021/01/24 06:42:04;;;;;;;35.10;20.50;;;;;;;;;;6258252;23;20055;-85
2021/01/24 06:44:35;;;;;;;33.38;19.67;;;;;;;;;;6252019;23;20032;-85
2021/01/24 06:47:03;;;;;;;35.75;20.35;;;;;;;;;;6224538;23;20019;-85
2021/01/24 06:49:42;;;;;;;39.20;22.13;;;;;;;;;;6223396;23;20139;-85
2021/01/24 06:52:16;;;;;;;40.47;23.00;;;;;;;;;;6224092;23;20027;-85
2021/01/24 06:54:44;;;;;;;;;;;;;;;;;;6252052;23;20035;-86
2021/01/24 06:57:11;;;;;;;38.00;19.98;;;;;;;;;;6252513;23;19919;-86
2021/01/24 06:59:37;;;;;;;36.45;20.45;;;;;;;;;;6251859;23;20161;-86
2021/01/24 07:02:18;;;;;;;34.80;21.17;;;;;;;;;;6252534;23;20024;-86
2021/01/24 07:05:05;;;;;;;37.63;20.42;;;;;;;;;;6253253;23;20086;-86
2021/01/24 07:07:32;;;;;;;37.55;20.25;;;;;;;;;;6226388;23;20028;-86
2021/01/24 07:09:58;;;;;;;36.72;21.58;;;;;;;;;;6226313;23;20373;-86
2021/01/24 07:12:41;;;;;;;37.08;21.42;;;;;;;;;;6224224;23;20024;-86
2021/01/24 07:15:11;;;;;;;36.95;20.60;;;;;;;;;;6224302;23;20034;-86
2021/01/24 07:17:37;;;;;;;38.08;20.73;;;;;;;;;;6225600;23;20054;-86
2021/01/24 07:20:05;;;;;;;37.65;21.48;;;;;;;;;;6225819;23;20260;-86
2021/01/24 07:22:31;;;;;;;41.53;22.85;;;;;;;;;;6252788;23;20084;-86
2021/01/24 07:24:57;;;;;;;39.65;21.67;;;;;;;;;;6226101;23;20024;-86
2021/01/24 07:27:28;;;;;;;40.25;22.75;;;;;;;;;;6254186;23;20030;-87
2021/01/24 07:29:55;;;;;;;40.88;22.83;;;;;;;;;;6229597;23;20315;-87
2021/01/24 07:32:22;;;;;;;43.00;22.67;;;;;;;;;;6232896;23;20100;-86
2021/01/24 07:34:53;;;;;;;41.13;22.42;;;;;;;;;;6231235;23;20082;-87
2021/01/24 07:37:19;;;;;;;37.50;22.50;;;;;;;;;;6257012;23;20035;-87
2021/01/24 07:39:46;;;;;;;35.97;20.38;;;;;;;;;;6256043;23;20141;-87
2021/01/24 07:42:12;;;;;;;39.10;21.38;;;;;;;;;;6229726;23;20024;-86
2021/01/24 07:44:38;;;;;;;42.65;22.70;;;;;;;;;;6231247;23;20127;-86
2021/01/24 07:47:08;;;;;;;40.67;22.27;;;;;;;;;;6237652;23;20229;-89
2021/01/24 07:49:49;;;;;;;46.17;24.38;;;;;;;;;;6239773;23;20289;-87
2021/01/24 07:52:16;;;;;;;44.00;24.00;;;;;;;;;;6266324;22;20023;-86
2021/01/24 07:54:43;;;;;;;47.05;25.70;;;;;;;;;;6241354;22;20026;-85
2021/01/24 07:57:14;;;;;;;45.00;24.95;;;;;;;;;;6267228;22;20059;-87
2021/01/24 07:59:40;;;;;;;45.95;24.77;;;;;;;;;;6268328;22;20015;-87
2021/01/24 08:02:06;;;;;;;39.25;22.33;;;;;;;;;;6264135;22;20032;-87
2021/01/24 08:04:35;;;;;;;41.03;23.52;;;;;;;;;;6256580;23;20024;-87
2021/01/24 08:07:05;;;;;;;38.55;22.85;;;;;;;;;;6229082;23;20291;-87
2021/01/24 08:09:35;;;;;;;41.67;24.58;;;;;;;;;;6226921;23;20032;-87
2021/01/24 08:12:14;;;;;;;40.78;23.90;;;;;;;;;;6229925;23;20028;-87
2021/01/24 08:14:42;;;;;;;38.10;22.33;;;;;;;;;;6253490;23;20111;-87
2021/01/24 08:17:13;;;;;;;42.63;23.08;;;;;;;;;;6252900;23;20059;-87
2021/01/24 08:19:46;;;;;;;40.17;22.33;;;;;;;;;;6254469;23;20034;-87
2021/01/24 08:22:15;;;;;;;41.13;22.23;;;;;;;;;;6254994;23;20032;-86
2021/01/24 08:24:41;;;;;;;38.55;22.50;;;;;;;;;;6228699;23;20055;-86
2021/01/24 08:27:14;;;;;;;36.38;21.70;;;;;;;;;;6240655;23;20015;-88
2021/01/24 08:29:40;;;;;;;42.35;23.42;;;;;;;;;;6253616;23;20039;-87
2021/01/24 08:32:06;;;;;;;40.85;22.85;;;;;;;;;;6226412;23;20028;-87
2021/01/24 08:34:39;;;;;;;39.58;22.83;;;;;;;;;;6225810;23;20481;-86
2021/01/24 08:37:05;;;;;;;35.70;23.15;;;;;;;;;;6254071;23;20459;-87
2021/01/24 08:39:33;;;;;;;37.88;22.60;;;;;;;;;;6253325;23;20039;-87
2021/01/24 08:42:09;;;;;;;37.03;23.65;;;;;;;;;;6227652;23;20024;-87
2021/01/24 08:44:35;;;;;;;39.50;23.88;;;;;;;;;;6250228;23;20024;-87
2021/01/24 08:47:05;;;;;;;42.30;25.00;;;;;;;;;;6222572;23;20044;-87
2021/01/24 08:49:38;;;;;;;39.38;25.10;;;;;;;;;;6233890;23;20028;-85
2021/01/24 08:52:06;;;;;;;41.70;24.23;;;;;;;;;;6234868;23;20024;-86
2021/01/24 08:54:40;;;;;;;47.03;27.55;;;;;;;;;;6224008;23;20024;-88
2021/01/24 08:57:18;;;;;;;43.63;26.05;;;;;;;;;;6236896;23;20024;-87
2021/01/24 08:59:58;;;;;;;37.90;25.08;;;;;;;;;;6258131;22;20024;-87
2021/01/24 09:02:36;;;;;;;39.92;24.90;;;;;;;;;;6253212;23;20372;-86
2021/01/24 09:05:04;;;;;;;40.25;25.67;;;;;;;;;;6256816;23;20036;-86
2021/01/24 09:07:47;;;;;;;39.58;25.55;;;;;;;;;;6256479;23;20032;-87
2021/01/24 09:10:21;;;;;;;37.55;24.23;;;;;;;;;;6227820;23;20059;-87
2021/01/24 09:12:49;;;;;;;36.20;24.30;;;;;;;;;;6234504;23;20088;-87
2021/01/24 09:15:23;;;;;;;38.42;23.45;;;;;;;;;;6231348;23;20055;-88
2021/01/24 09:17:50;;;;;;;37.63;23.33;;;;;;;;;;6225826;23;20108;-87
2021/01/24 09:20:19;;;;;;;31.60;20.27;;;;;;;;;;6254282;23;20434;-86
2021/01/24 09:22:45;;;;;;;29.50;20.48;;;;;;;;;;6226824;23;20028;-86
2021/01/24 09:25:13;;;;;;;30.75;20.52;;;;;;;;;;6253297;23;20336;-86
2021/01/24 09:27:40;;;;;;;31.67;19.83;;;;;;;;;;6253736;23;20074;-87
2021/01/24 09:30:08;;;;;;;32.35;21.05;;;;;;;;;;6227292;23;20028;-87
2021/01/24 09:32:34;;;;;;;31.52;19.35;;;;;;;;;;6226780;23;20073;-87
2021/01/24 09:35:01;;;;;;;28.70;19.95;;;;;;;;;;6226306;23;20122;-87
2021/01/24 09:37:37;;;;;;;31.42;19.00;;;;;;;;;;6225866;23;20250;-87
2021/01/24 09:40:04;;;;;;;30.23;18.70;;;;;;;;;;6226082;23;20058;-87
2021/01/24 09:42:30;;;;;;;25.63;18.42;;;;;;;;;;6227188;23;20086;-86
2021/01/24 09:44:57;;;;;;;25.52;18.02;;;;;;;;;;6226460;23;20024;-86
2021/01/24 09:47:23;;;;;;;27.95;19.13;;;;;;;;;;6225975;23;20024;-86
2021/01/24 09:49:50;;;;;;;31.90;19.83;;;;;;;;;;6226761;23;20076;-86
2021/01/24 09:52:20;;;;;;;30.40;20.38;;;;;;;;;;6228745;23;20075;-87
2021/01/24 09:54:48;;;;;;;30.58;19.98;;;;;;;;;;6262779;23;20210;-87
2021/01/24 09:57:29;;;;;;;27.75;19.08;;;;;;;;;;6244915;22;20025;-87
2021/01/24 09:59:59;;;;;;;27.98;19.42;;;;;;;;;;6265830;22;20038;-87
2021/01/24 10:02:25;;;;;;;28.35;19.33;;;;;;;;;;6233734;23;20028;-85
2021/01/24 10:05:00;;;;;;;26.58;19.15;;;;;;;;;;6249874;23;20036;-83
2021/01/24 10:07:29;;;;;;;29.88;21.05;;;;;;;;;;6227128;23;20071;-84
2021/01/24 10:09:55;;;;;;;30.08;20.52;;;;;;;;;;6233986;23;20118;-85
2021/01/24 10:12:22;;;;;;;28.33;20.65;;;;;;;;;;6238204;22;20028;-83
2021/01/24 10:14:51;;;;;;;28.55;19.83;;;;;;;;;;6228528;23;20032;-83
2021/01/24 10:17:17;;;;;;;32.70;20.77;;;;;;;;;;6225984;23;20051;-84
2021/01/24 10:19:46;;;;;;;34.08;22.75;;;;;;;;;;6226238;23;20052;-84
2021/01/24 10:22:14;;;;;;;36.53;22.52;;;;;;;;;;6251143;23;20101;-84
2021/01/24 10:24:41;;;;;;;35.97;23.92;;;;;;;;;;6250138;23;20420;-85
2021/01/24 10:27:07;;;;;;;34.60;23.95;;;;;;;;;;6224971;22;20537;-85
2021/01/24 10:29:49;;;;;;;41.15;24.77;;;;;;;;;;6225020;23;20082;-85
2021/01/24 10:32:16;;;;;;;38.42;25.27;;;;;;;;;;6223605;23;20084;-85
2021/01/24 10:35:00;;;;;;;47.70;27.77;;;;;;;;;;6250499;23;20038;-85
2021/01/24 10:37:26;;;;;;;40.42;26.25;;;;;;;;;;6250561;23;20137;-85
2021/01/24 10:39:52;;;;;;;41.30;26.00;;;;;;;;;;6223083;23;20028;-83
2021/01/24 10:42:24;;;;;;;45.38;27.88;;;;;;;;;;6253453;23;20024;-84
2021/01/24 10:44:57;;;;;;;39.65;26.40;;;;;;;;;;6251347;23;20329;-84
2021/01/24 10:47:24;;;;;;;41.35;26.98;;;;;;;;;;6227295;23;20036;-85
2021/01/24 10:49:51;;;;;;;44.28;28.00;;;;;;;;;;6231412;22;20050;-85
2021/01/24 10:52:18;;;;;;;46.75;27.48;;;;;;;;;;6263547;22;20064;-85
2021/01/24 10:54:44;;;;;;;46.20;28.08;;;;;;;;;;6238472;22;20107;-83
2021/01/24 10:57:15;;;;;;;43.38;28.52;;;;;;;;;;6220582;23;20043;-83
2021/01/24 10:59:47;;;;;;;41.03;25.92;;;;;;;;;;6221849;23;20441;-84
2021/01/24 11:02:17;;;;;;;39.30;26.25;;;;;;;;;;6247777;23;20072;-83
2021/01/24 11:04:47;;;;;;;38.40;24.50;;;;;;;;;;6222185;23;20217;-83
2021/01/24 11:07:14;;;;;;;40.72;26.02;;;;;;;;;;6258131;23;20348;-84
2021/01/24 11:09:40;;;;;;;41.58;27.40;;;;;;;;;;6221071;23;20028;-85
2021/01/24 11:12:15;;;;;;;44.03;27.45;;;;;;;;;;6248050;23;20545;-85
2021/01/24 11:14:56;;;;;;;41.85;26.80;;;;;;;;;;6218667;23;20028;-84
2021/01/24 11:17:22;;;;;;;42.25;26.13;;;;;;;;;;6218339;23;20038;-85
2021/01/24 11:19:51;;;;;;;47.88;26.48;;;;;;;;;;6247806;23;20099;-84
2021/01/24 11:22:18;;;;;;;37.53;24.90;;;;;;;;;;6245994;23;20024;-85
2021/01/24 11:24:45;;;;;;;42.67;25.23;;;;;;;;;;6216571;23;20125;-85
2021/01/24 11:27:11;;;;;;;40.50;25.40;;;;;;;;;;6214468;23;20028;-85
2021/01/24 11:29:45;;;;;;;39.92;24.83;;;;;;;;;;6239209;23;20105;-85
2021/01/24 11:32:14;;;;;;;37.25;24.42;;;;;;;;;;6213295;23;20106;-85
2021/01/24 11:34:41;;;;;;;39.95;24.83;;;;;;;;;;6238827;23;20249;-85
2021/01/24 11:37:08;;;;;;;38.83;24.83;;;;;;;;;;6215151;23;20377;-85
2021/01/24 11:39:35;;;;;;;36.15;23.02;;;;;;;;;;6240393;23;20410;-84
2021/01/24 11:42:02;;;;;;;32.97;23.38;;;;;;;;;;6214619;23;20114;-85
2021/01/24 11:44:32;;;;;;;31.45;21.75;;;;;;;;;;6240122;23;20112;-85
2021/01/24 11:46:58;;;;;;;32.22;21.10;;;;;;;;;;6212688;23;20028;-84
2021/01/24 11:49:24;;;;;;;27.77;20.05;;;;;;;;;;6213351;23;20055;-84
2021/01/24 11:51:50;;;;;;;31.02;20.27;;;;;;;;;;6213741;23;20321;-84
2021/01/24 11:54:17;;;;;;;29.02;19.92;;;;;;;;;;6238918;23;20280;-85
2021/01/24 11:56:43;;;;;;;25.42;18.08;;;;;;;;;;6211464;23;20028;-84
2021/01/24 11:59:11;;;;;;;26.63;17.15;;;;;;;;;;6254513;23;20019;-84
2021/01/24 12:01:37;;;;;;;24.80;17.10;;;;;;;;;;6259310;23;20197;-83
2021/01/24 12:04:05;;;;;;;22.35;14.85;;;;;;;;;;6232222;23;20012;-84
2021/01/24 12:06:32;;;;;;;22.08;14.45;;;;;;;;;;6232406;23;20138;-84
2021/01/24 12:08:58;;;;;;;21.75;15.07;;;;;;;;;;6220421;22;20267;-84
2021/01/24 12:11:24;;;;;;;22.08;13.20;;;;;;;;;;6213147;23;20042;-84
2021/01/24 12:13:50;;;;;;;17.67;10.75;;;;;;;;;;6214352;23;20031;-84
2021/01/24 12:16:16;;;;;;;18.05;11.30;;;;;;;;;;6219677;23;20023;-84
2021/01/24 12:18:43;;;;;;;15.10;10.65;;;;;;;;;;6242835;23;20161;-84
2021/01/24 12:21:09;;;;;;;19.73;10.85;;;;;;;;;;6216793;23;20107;-84
2021/01/24 12:23:35;;;;;;;17.35;10.75;;;;;;;;;;6214197;23;20024;-84
2021/01/24 12:26:05;;;;;;;19.95;10.80;;;;;;;;;;6214948;23;20084;-84
2021/01/24 12:28:32;;;;;;;19.70;11.90;;;;;;;;;;6216212;23;20159;-84
2021/01/24 12:31:09;;;;;;;20.35;11.05;;;;;;;;;;6258901;23;20385;-83
2021/01/24 12:33:36;;;;;;;18.10;11.57;;;;;;;;;;6243224;23;20103;-84
2021/01/24 12:36:12;;;;;;;18.85;11.45;;;;;;;;;;6242077;23;20035;-84
2021/01/24 12:38:40;;;;;;;17.92;11.07;;;;;;;;;;6241663;23;20051;-84
2021/01/24 12:41:16;;;;;;;19.10;11.52;;;;;;;;;;6241900;23;20024;-83
2021/01/24 12:43:42;;;;;;;21.05;12.27;;;;;;;;;;6221348;23;20028;-84
2021/01/24 12:46:09;;;;;;;18.02;11.80;;;;;;;;;;6215557;23;20024;-84
2021/01/24 12:48:39;;;;;;;20.83;12.05;;;;;;;;;;6242166;23;20111;-84
2021/01/24 12:51:08;;;;;;;18.55;11.73;;;;;;;;;;6214038;23;20426;-84
2021/01/24 12:53:39;;;;;;;25.92;13.35;;;;;;;;;;6217044;23;20028;-85
2021/01/24 12:56:10;;;;;;;17.08;10.73;;;;;;;;;;6210651;23;20159;-85
2021/01/24 12:58:38;;;;;;;18.25;11.23;;;;;;;;;;6250144;22;20115;-87
2021/01/24 13:01:08;;;;;;;16.40;9.52;;;;;;;;;;6243332;23;20381;-84
2021/01/24 13:03:41;;;;;;;18.75;11.23;;;;;;;;;;6242386;23;20114;-84
2021/01/24 13:06:07;;;;;;;16.65;9.98;;;;;;;;;;6214994;23;20317;-84
2021/01/24 13:08:45;;;;;;;15.95;9.73;;;;;;;;;;6264927;22;20285;-87
2021/01/24 13:11:14;;;;;;;16.63;10.55;;;;;;;;;;6244872;23;20088;-85
2021/01/24 13:13:42;;;;;;;16.08;9.95;;;;;;;;;;6215480;23;20031;-84
2021/01/24 13:16:08;;;;;;;14.02;9.20;;;;;;;;;;6217312;23;20087;-84
2021/01/24 13:18:38;;;;;;;18.00;10.25;;;;;;;;;;6218534;23;20422;-85
2021/01/24 13:21:05;;;;;;;21.52;10.73;;;;;;;;;;6229286;23;20103;-84
2021/01/24 13:23:40;;;;;;;15.50;10.68;;;;;;;;;;6217797;23;20342;-84
2021/01/24 13:26:06;;;;;;;16.70;10.00;;;;;;;;;;6214946;23;20034;-84
2021/01/24 13:28:47;;;;;;;15.65;9.30;;;;;;;;;;6221322;23;20019;-84
2021/01/24 13:31:15;;;;;;;15.90;10.93;;;;;;;;;;6233930;22;20040;-85
2021/01/24 13:33:43;;;;;;;15.55;10.30;;;;;;;;;;6237840;22;20016;-85
2021/01/24 13:36:10;;;;;;;16.33;9.85;;;;;;;;;;6222021;23;20038;-84
2021/01/24 13:38:39;;;;;;;15.20;9.20;;;;;;;;;;6219176;23;20036;-86
2021/01/24 13:41:07;;;;;;;16.15;9.15;;;;;;;;;;6252662;23;20008;-84
2021/01/24 13:43:44;;;;;;;15.25;8.25;;;;;;;;;;6236902;22;20016;-85
2021/01/24 13:46:13;;;;;;;15.95;8.32;;;;;;;;;;6237216;22;20008;-86
2021/01/24 13:48:44;;;;;;;14.25;8.32;;;;;;;;;;6246125;23;20080;-88
2021/01/24 13:51:25;;;;;;;14.85;8.85;;;;;;;;;;6270390;23;20027;-86
2021/01/24 13:53:51;;;;;;;14.38;8.88;;;;;;;;;;6261293;23;20117;-86
2021/01/24 13:56:18;;;;;;;12.25;7.85;;;;;;;;;;6232613;23;20398;-87
2021/01/24 13:58:54;;;;;;;12.55;8.27;;;;;;;;;;6228415;23;20024;-85
2021/01/24 14:01:24;;;;;;;14.07;8.55;;;;;;;;;;6238105;22;20066;-88
2021/01/24 14:03:57;;;;;;;13.48;9.00;;;;;;;;;;6220988;23;20335;-86
2021/01/24 14:06:26;;;;;;;17.42;8.75;;;;;;;;;;6246282;23;20043;-86
2021/01/24 14:08:52;;;;;;;13.45;8.65;;;;;;;;;;6219572;23;20028;-86
2021/01/24 14:11:19;;;;;;;13.57;8.05;;;;;;;;;;6220771;23;20020;-86
2021/01/24 14:13:45;;;;;;;16.25;8.75;;;;;;;;;;6247053;23;20038;-86
2021/01/24 14:16:11;;;;;;;18.73;9.50;;;;;;;;;;6248713;23;20090;-86
2021/01/24 14:18:45;;;;;;;13.77;8.43;;;;;;;;;;6221505;23;20096;-86
2021/01/24 14:21:11;;;;;;;18.00;7.40;;;;;;;;;;6217792;23;20028;-86
2021/01/24 14:23:47;;;;;;;14.07;7.25;;;;;;;;;;6220323;23;20024;-86
2021/01/24 14:26:14;;;;;;;12.02;7.43;;;;;;;;;;6219950;23;20242;-86
2021/01/24 14:28:49;;;;;;;14.13;7.03;;;;;;;;;;6257443;23;20051;-86
2021/01/24 14:31:15;;;;;;;13.70;7.40;;;;;;;;;;6238096;23;20097;-86